sensor_id;sensor_type;location;lat;lon;timestamp;pressure;altitude;pressure_sealevel;temperature;humidity
10014;BME280;45684;48.358;10.746;2023-02-13T00:01:26;98082.69;;;1.23;100.00
10014;BME280;45684;48.358;10.746;2023-02-13T00:03:56;98084.72;;;1.27;100.00
10014;BME280;45684;48.358;10.746;2023-02-13T00:06:24;98074.28;;;1.26;100.00
10014;BME280;45684;48.358;10.746;2023-02-13T00:08:51;98078.75;;;1.25;100.00
10014;BME280;45684;48.358;10.746;2023-02-13T00:11:19;98071.19;;;1.29;100.00
10014;BME280;45684;48.358;10.746;2023-02-13T00:13:47;98076.94;;;1.26;100.00
10014;BME280;45684;48.358;10.746;2023-02-13T00:16:15;98084.09;;;1.25;100.00
10014;BME280;45684;48.358;10.746;2023-02-13T00:18:43;98082.28;;;1.26;100.00
10014;BME280;45684;48.358;10.746;2023-02-13T00:21:12;98072.84;;;1.23;100.00
10014;BME280;45684;48.358;10.746;2023-02-13T00:23:40;98073.66;;;1.24;100.00
10014;BME280;45684;48.358;10.746;2023-02-13T00:26:10;98076.72;;;1.21;100.00
10014;BME280;45684;48.358;10.746;2023-02-13T00:28:42;98071.63;;;1.26;100.00
10014;BME280;45684;48.358;10.746;2023-02-13T00:31:11;98073.25;;;1.27;100.00
10014;BME280;45684;48.358;10.746;2023-02-13T00:33:40;98078.13;;;1.30;100.00
10014;BME280;45684;48.358;10.746;2023-02-13T00:36:12;98076.31;;;1.31;100.00
10014;BME280;45684;48.358;10.746;2023-02-13T00:38:41;98072.81;;;1.30;100.00
10014;BME280;45684;48.358;10.746;2023-02-13T00:41:11;98073.44;;;1.32;100.00
10014;BME280;45684;48.358;10.746;2023-02-13T00:43:39;98073.00;;;1.35;100.00
10014;BME280;45684;48.358;10.746;2023-02-13T00:46:07;98075.66;;;1.35;100.00
10014;BME280;45684;48.358;10.746;2023-02-13T00:48:35;98086.94;;;1.37;100.00
10014;BME280;45684;48.358;10.746;2023-02-13T00:51:04;98079.78;;;1.38;100.00
10014;BME280;45684;48.358;10.746;2023-02-13T00:53:34;98084.69;;;1.41;100.00
10014;BME280;45684;48.358;10.746;2023-02-13T00:56:03;98076.25;;;1.44;100.00
10014;BME280;45684;48.358;10.746;2023-02-13T00:58:32;98073.59;;;1.44;100.00
10014;BME280;45684;48.358;10.746;2023-02-13T01:01:00;98076.06;;;1.45;100.00
10014;BME280;45684;48.358;10.746;2023-02-13T01:03:28;98073.41;;;1.45;100.00
10014;BME280;45684;48.358;10.746;2023-02-13T01:05:56;98065.81;;;1.42;100.00
10014;BME280;45684;48.358;10.746;2023-02-13T01:08:24;98066.41;;;1.44;100.00
10014;BME280;45684;48.358;10.746;2023-02-13T01:10:55;98070.72;;;1.45;100.00
10014;BME280;45684;48.358;10.746;2023-02-13T01:13:24;98073.41;;;1.45;100.00
10014;BME280;45684;48.358;10.746;2023-02-13T01:15:52;98072.78;;;1.43;100.00
10014;BME280;45684;48.358;10.746;2023-02-13T01:18:21;98067.44;;;1.43;100.00
10014;BME280;45684;48.358;10.746;2023-02-13T01:20:55;98076.88;;;1.39;100.00
10014;BME280;45684;48.358;10.746;2023-02-13T01:23:24;98056.78;;;1.43;100.00
10014;BME280;45684;48.358;10.746;2023-02-13T01:25:52;98068.66;;;1.47;100.00
10014;BME280;45684;48.358;10.746;2023-02-13T01:28:21;98070.72;;;1.45;100.00
10014;BME280;45684;48.358;10.746;2023-02-13T01:30:53;98077.06;;;1.44;100.00
10014;BME280;45684;48.358;10.746;2023-02-13T01:33:23;98083.44;;;1.43;100.00
10014;BME280;45684;48.358;10.746;2023-02-13T01:35:52;98079.56;;;1.39;100.00
10014;BME280;45684;48.358;10.746;2023-02-13T01:38:20;98086.31;;;1.42;100.00
10014;BME280;45684;48.358;10.746;2023-02-13T01:40:51;98074.03;;;1.41;100.00
10014;BME280;45684;48.358;10.746;2023-02-13T01:43:19;98069.09;;;1.38;100.00
10014;BME280;45684;48.358;10.746;2023-02-13T01:45:54;98074.41;;;1.44;100.00
10014;BME280;45684;48.358;10.746;2023-02-13T01:48:24;98075.84;;;1.47;100.00
10014;BME280;45684;48.358;10.746;2023-02-13T01:51:01;98064.97;;;1.48;100.00
10014;BME280;45684;48.358;10.746;2023-02-13T01:53:34;98059.22;;;1.51;100.00
10014;BME280;45684;48.358;10.746;2023-02-13T01:56:09;98058.41;;;1.51;100.00
10014;BME280;45684;48.358;10.746;2023-02-13T01:58:41;98067.81;;;1.53;100.00
10014;BME280;45684;48.358;10.746;2023-02-13T02:01:12;98067.00;;;1.53;100.00
10014;BME280;45684;48.358;10.746;2023-02-13T02:03:43;98070.09;;;1.43;100.00
10014;BME280;45684;48.358;10.746;2023-02-13T02:06:17;98069.06;;;1.44;100.00
10014;BME280;45684;48.358;10.746;2023-02-13T02:08:49;98066.22;;;1.39;100.00
10014;BME280;45684;48.358;10.746;2023-02-13T02:11:26;98061.94;;;1.38;100.00
10014;BME280;45684;48.358;10.746;2023-02-13T02:13:57;98061.34;;;1.36;100.00
10014;BME280;45684;48.358;10.746;2023-02-13T02:16:34;98054.34;;;1.35;100.00
10014;BME280;45684;48.358;10.746;2023-02-13T02:19:04;98062.34;;;1.35;100.00
10014;BME280;45684;48.358;10.746;2023-02-13T02:21:59;98061.75;;;1.33;100.00
10014;BME280;45684;48.358;10.746;2023-02-13T02:24:55;98062.78;;;1.32;100.00
10014;BME280;45684;48.358;10.746;2023-02-13T02:27:59;98060.06;;;1.39;100.00
10014;BME280;45684;48.358;10.746;2023-02-13T02:31:00;98057.22;;;1.40;100.00
10014;BME280;45684;48.358;10.746;2023-02-13T02:33:43;98055.16;;;1.42;100.00
10014;BME280;45684;48.358;10.746;2023-02-13T02:36:26;98059.25;;;1.45;100.00
10014;BME280;45684;48.358;10.746;2023-02-13T02:39:04;98061.50;;;1.41;100.00
10014;BME280;45684;48.358;10.746;2023-02-13T02:41:51;98052.69;;;1.41;100.00
10014;BME280;45684;48.358;10.746;2023-02-13T02:44:31;98042.03;;;1.41;100.00
10014;BME280;45684;48.358;10.746;2023-02-13T02:47:08;98058.22;;;1.39;100.00
10014;BME280;45684;48.358;10.746;2023-02-13T02:50:11;98048.78;;;1.43;100.00
10014;BME280;45684;48.358;10.746;2023-02-13T02:52:45;98057.19;;;1.47;100.00
10014;BME280;45684;48.358;10.746;2023-02-13T02:55:27;98055.09;;;1.49;100.00
10014;BME280;45684;48.358;10.746;2023-02-13T02:58:02;98062.09;;;1.50;100.00
10014;BME280;45684;48.358;10.746;2023-02-13T03:00:54;98061.47;;;1.55;100.00
10014;BME280;45684;48.358;10.746;2023-02-13T03:03:42;98056.38;;;1.46;100.00
10014;BME280;45684;48.358;10.746;2023-02-13T03:06:34;98062.16;;;1.37;100.00
10014;BME280;45684;48.358;10.746;2023-02-13T03:09:08;98074.84;;;1.41;100.00
10014;BME280;45684;48.358;10.746;2023-02-13T03:11:55;98074.84;;;1.35;100.00
10014;BME280;45684;48.358;10.746;2023-02-13T03:14:41;98070.78;;;1.32;100.00
10014;BME280;45684;48.358;10.746;2023-02-13T03:17:10;98077.13;;;1.31;100.00
10014;BME280;45684;48.358;10.746;2023-02-13T03:20:05;98076.09;;;1.32;100.00
10014;BME280;45684;48.358;10.746;2023-02-13T03:23:04;98075.06;;;1.33;100.00
10014;BME280;45684;48.358;10.746;2023-02-13T03:25:38;98075.66;;;1.35;100.00
10014;BME280;45684;48.358;10.746;2023-02-13T03:28:11;98070.56;;;1.34;100.00
10014;BME280;45684;48.358;10.746;2023-02-13T03:31:09;98074.66;;;1.30;100.00
10014;BME280;45684;48.358;10.746;2023-02-13T03:33:52;98084.31;;;1.31;100.00
10014;BME280;45684;48.358;10.746;2023-02-13T03:36:28;98079.81;;;1.31;100.00
10014;BME280;45684;48.358;10.746;2023-02-13T03:39:21;98091.28;;;1.32;100.00
10014;BME280;45684;48.358;10.746;2023-02-13T03:41:55;98084.09;;;1.32;100.00
10014;BME280;45684;48.358;10.746;2023-02-13T03:44:30;98083.88;;;1.34;100.00
10014;BME280;45684;48.358;10.746;2023-02-13T03:47:00;98082.66;;;1.30;100.00
10014;BME280;45684;48.358;10.746;2023-02-13T03:49:32;98078.13;;;1.30;100.00
10014;BME280;45684;48.358;10.746;2023-02-13T03:52:24;98080.59;;;1.38;100.00
10014;BME280;45684;48.358;10.746;2023-02-13T03:54:57;98087.97;;;1.36;100.00
10014;BME280;45684;48.358;10.746;2023-02-13T03:57:44;98081.63;;;1.37;100.00
10014;BME280;45684;48.358;10.746;2023-02-13T04:00:35;98093.31;;;1.36;100.00
10014;BME280;45684;48.358;10.746;2023-02-13T04:03:08;98084.88;;;1.39;100.00
10014;BME280;45684;48.358;10.746;2023-02-13T04:05:42;98092.06;;;1.39;100.00
10014;BME280;45684;48.358;10.746;2023-02-13T04:08:11;98093.69;;;1.40;100.00
10014;BME280;45684;48.358;10.746;2023-02-13T04:10:45;98100.28;;;1.37;100.00
10014;BME280;45684;48.358;10.746;2023-02-13T04:13:19;98096.59;;;1.32;100.00
10014;BME280;45684;48.358;10.746;2023-02-13T04:15:52;98097.81;;;1.29;100.00
10014;BME280;45684;48.358;10.746;2023-02-13T04:18:24;98100.72;;;1.27;100.00
10014;BME280;45684;48.358;10.746;2023-02-13T04:20:53;98102.56;;;1.27;100.00
10014;BME280;45684;48.358;10.746;2023-02-13T04:23:22;98103.78;;;1.31;100.00
10014;BME280;45684;48.358;10.746;2023-02-13T04:25:53;98098.84;;;1.35;100.00
10014;BME280;45684;48.358;10.746;2023-02-13T04:28:22;98109.72;;;1.33;100.00
10014;BME280;45684;48.358;10.746;2023-02-13T04:30:50;98105.63;;;1.31;100.00
10014;BME280;45684;48.358;10.746;2023-02-13T04:33:18;98106.84;;;1.28;100.00
10014;BME280;45684;48.358;10.746;2023-02-13T04:35:46;98114.25;;;1.26;100.00
10014;BME280;45684;48.358;10.746;2023-02-13T04:38:14;98111.38;;;1.27;100.00
10014;BME280;45684;48.358;10.746;2023-02-13T04:40:42;98108.72;;;1.27;100.00
10014;BME280;45684;48.358;10.746;2023-02-13T04:43:11;98105.63;;;1.31;100.00
10014;BME280;45684;48.358;10.746;2023-02-13T04:45:39;98115.44;;;1.30;100.00
10014;BME280;45684;48.358;10.746;2023-02-13T04:48:07;98112.19;;;1.28;100.00
10014;BME280;45684;48.358;10.746;2023-02-13T04:50:35;98108.72;;;1.27;100.00
10014;BME280;45684;48.358;10.746;2023-02-13T04:53:03;98114.44;;;1.31;100.00
10014;BME280;45684;48.358;10.746;2023-02-13T04:55:31;98116.47;;;1.29;100.00
10014;BME280;45684;48.358;10.746;2023-02-13T04:57:59;98110.75;;;1.25;100.00
10014;BME280;45684;48.358;10.746;2023-02-13T05:00:28;98116.06;;;1.25;100.00
10014;BME280;45684;48.358;10.746;2023-02-13T05:02:59;98105.63;;;1.24;100.00
10014;BME280;45684;48.358;10.746;2023-02-13T05:05:30;98104.00;;;1.23;100.00
10014;BME280;45684;48.358;10.746;2023-02-13T05:07:58;98110.56;;;1.20;100.00
10014;BME280;45684;48.358;10.746;2023-02-13T05:10:26;98109.13;;;1.24;100.00
10014;BME280;45684;48.358;10.746;2023-02-13T05:12:54;98113.22;;;1.27;100.00
10014;BME280;45684;48.358;10.746;2023-02-13T05:15:22;98114.22;;;1.33;100.00
10014;BME280;45684;48.358;10.746;2023-02-13T05:17:51;98120.78;;;1.30;100.00
10014;BME280;45684;48.358;10.746;2023-02-13T05:20:19;98109.75;;;1.26;100.00
10014;BME280;45684;48.358;10.746;2023-02-13T05:22:49;98112.41;;;1.26;100.00
10014;BME280;45684;48.358;10.746;2023-02-13T05:25:36;98104.81;;;1.23;100.00
10014;BME280;45684;48.358;10.746;2023-02-13T05:28:06;98105.03;;;1.22;100.00
10014;BME280;45684;48.358;10.746;2023-02-13T05:30:54;98109.72;;;1.20;100.00
10014;BME280;45684;48.358;10.746;2023-02-13T05:33:24;98110.38;;;1.22;100.00
10014;BME280;45684;48.358;10.746;2023-02-13T05:35:52;98120.22;;;1.21;100.00
10014;BME280;45684;48.358;10.746;2023-02-13T05:38:20;98116.06;;;1.25;100.00
10014;BME280;45684;48.358;10.746;2023-02-13T05:40:47;98108.50;;;1.22;100.00
10014;BME280;45684;48.358;10.746;2023-02-13T05:43:15;98108.69;;;1.21;100.00
10014;BME280;45684;48.358;10.746;2023-02-13T05:45:43;98102.16;;;1.23;100.00
10014;BME280;45684;48.358;10.746;2023-02-13T05:48:11;98107.25;;;1.25;100.00
10014;BME280;45684;48.358;10.746;2023-02-13T05:50:40;98121.22;;;1.27;100.00
10014;BME280;45684;48.358;10.746;2023-02-13T05:53:08;98113.84;;;1.22;100.00
10014;BME280;45684;48.358;10.746;2023-02-13T05:55:35;98113.03;;;1.22;100.00
10014;BME280;45684;48.358;10.746;2023-02-13T05:58:03;98117.53;;;1.21;100.00
10014;BME280;45684;48.358;10.746;2023-02-13T06:00:31;98114.03;;;1.21;100.00
10014;BME280;45684;48.358;10.746;2023-02-13T06:02:59;98120.00;;;1.23;100.00
10014;BME280;45684;48.358;10.746;2023-02-13T06:05:27;98116.50;;;1.22;100.00
10014;BME280;45684;48.358;10.746;2023-02-13T06:07:56;98113.03;;;1.22;100.00
10014;BME280;45684;48.358;10.746;2023-02-13T06:10:23;98111.59;;;1.19;100.00
10014;BME280;45684;48.358;10.746;2023-02-13T06:12:51;98117.53;;;1.21;100.00
10014;BME280;45684;48.358;10.746;2023-02-13T06:15:19;98118.34;;;1.22;100.00
10014;BME280;45684;48.358;10.746;2023-02-13T06:17:47;98117.31;;;1.23;100.00
10014;BME280;45684;48.358;10.746;2023-02-13T06:20:15;98118.94;;;1.24;100.00
10014;BME280;45684;48.358;10.746;2023-02-13T06:22:43;98125.91;;;1.25;100.00
10014;BME280;45684;48.358;10.746;2023-02-13T06:25:12;98125.91;;;1.25;100.00
10014;BME280;45684;48.358;10.746;2023-02-13T06:27:40;98125.50;;;1.28;100.00
10014;BME280;45684;48.358;10.746;2023-02-13T06:30:08;98131.44;;;1.30;100.00
10014;BME280;45684;48.358;10.746;2023-02-13T06:32:36;98120.59;;;1.32;100.00
10014;BME280;45684;48.358;10.746;2023-02-13T06:35:05;98127.78;;;1.31;100.00
10014;BME280;45684;48.358;10.746;2023-02-13T06:37:33;98132.28;;;1.31;100.00
10014;BME280;45684;48.358;10.746;2023-02-13T06:40:01;98125.91;;;1.32;100.00
10014;BME280;45684;48.358;10.746;2023-02-13T06:42:30;98131.25;;;1.32;100.00
10014;BME280;45684;48.358;10.746;2023-02-13T06:44:58;98130.44;;;1.31;100.00
10014;BME280;45684;48.358;10.746;2023-02-13T06:47:25;98131.66;;;1.28;100.00
10014;BME280;45684;48.358;10.746;2023-02-13T06:49:53;98134.31;;;1.28;100.00
10014;BME280;45684;48.358;10.746;2023-02-13T06:52:21;98138.44;;;1.31;100.00
10014;BME280;45684;48.358;10.746;2023-02-13T06:54:49;98137.41;;;1.32;100.00
10014;BME280;45684;48.358;10.746;2023-02-13T06:57:17;98142.72;;;1.32;100.00
10014;BME280;45684;48.358;10.746;2023-02-13T06:59:46;98143.75;;;1.31;100.00
10014;BME280;45684;48.358;10.746;2023-02-13T07:02:14;98151.53;;;1.33;100.00
10014;BME280;45684;48.358;10.746;2023-02-13T07:04:42;98154.81;;;1.35;100.00
10014;BME280;45684;48.358;10.746;2023-02-13T07:07:10;98159.50;;;1.39;100.00
10014;BME280;45684;48.358;10.746;2023-02-13T07:09:37;98158.69;;;1.39;100.00
10014;BME280;45684;48.358;10.746;2023-02-13T07:12:06;98151.09;;;1.42;100.00
10014;BME280;45684;48.358;10.746;2023-02-13T07:14:34;98160.56;;;1.45;100.00
10014;BME280;45684;48.358;10.746;2023-02-13T07:17:04;98155.00;;;1.46;100.00
10014;BME280;45684;48.358;10.746;2023-02-13T07:19:31;98161.78;;;1.42;100.00
10014;BME280;45684;48.358;10.746;2023-02-13T07:21:59;98158.06;;;1.50;100.00
10014;BME280;45684;48.358;10.746;2023-02-13T07:24:27;98162.78;;;1.55;100.00
10014;BME280;45684;48.358;10.746;2023-02-13T07:26:55;98163.59;;;1.55;100.00
10014;BME280;45684;48.358;10.746;2023-02-13T07:29:23;98160.94;;;1.55;100.00
10014;BME280;45684;48.358;10.746;2023-02-13T07:31:51;98167.91;;;1.56;100.00
10014;BME280;45684;48.358;10.746;2023-02-13T07:34:20;98170.16;;;1.52;100.00
10014;BME280;45684;48.358;10.746;2023-02-13T07:36:48;98169.13;;;1.53;100.00
10014;BME280;45684;48.358;10.746;2023-02-13T07:39:16;98176.91;;;1.62;100.00
10014;BME280;45684;48.358;10.746;2023-02-13T07:41:44;98175.88;;;1.63;100.00
10014;BME280;45684;48.358;10.746;2023-02-13T07:44:14;98179.38;;;1.63;100.00
10014;BME280;45684;48.358;10.746;2023-02-13T07:46:42;98181.38;;;1.68;100.00
10014;BME280;45684;48.358;10.746;2023-02-13T07:49:10;98185.50;;;1.70;100.00
10014;BME280;45684;48.358;10.746;2023-02-13T07:51:39;98179.16;;;1.65;100.00
10014;BME280;45684;48.358;10.746;2023-02-13T07:54:07;98174.88;;;1.64;100.00
10014;BME280;45684;48.358;10.746;2023-02-13T07:56:35;98178.13;;;1.66;100.00
10014;BME280;45684;48.358;10.746;2023-02-13T07:59:03;98178.72;;;1.68;100.00
10014;BME280;45684;48.358;10.746;2023-02-13T08:01:33;98182.25;;;1.68;100.00
10014;BME280;45684;48.358;10.746;2023-02-13T08:04:01;98182.00;;;1.70;100.00
10014;BME280;45684;48.358;10.746;2023-02-13T08:06:29;98191.44;;;1.79;100.00
10014;BME280;45684;48.358;10.746;2023-02-13T08:08:58;98183.56;;;1.91;100.00
10014;BME280;45684;48.358;10.746;2023-02-13T08:11:42;98183.97;;;1.94;100.00
10014;BME280;45684;48.358;10.746;2023-02-13T08:14:23;98181.31;;;1.94;100.00
10014;BME280;45684;48.358;10.746;2023-02-13T08:16:52;98178.84;;;1.99;100.00
10014;BME280;45684;48.358;10.746;2023-02-13T08:19:21;98178.00;;;1.99;100.00
10014;BME280;45684;48.358;10.746;2023-02-13T08:21:48;98186.59;;;2.08;100.00
10014;BME280;45684;48.358;10.746;2023-02-13T08:24:18;98180.63;;;2.12;100.00
10014;BME280;45684;48.358;10.746;2023-02-13T08:26:46;98182.50;;;2.12;100.00
10014;BME280;45684;48.358;10.746;2023-02-13T08:29:14;98190.50;;;2.12;100.00
10014;BME280;45684;48.358;10.746;2023-02-13T08:31:42;98192.34;;;2.11;100.00
10014;BME280;45684;48.358;10.746;2023-02-13T08:34:10;98192.97;;;2.07;100.00
10014;BME280;45684;48.358;10.746;2023-02-13T08:36:38;98180.22;;;2.09;100.00
10014;BME280;45684;48.358;10.746;2023-02-13T08:39:07;98180.06;;;2.03;100.00
10014;BME280;45684;48.358;10.746;2023-02-13T08:41:37;98191.75;;;2.02;100.00
10014;BME280;45684;48.358;10.746;2023-02-13T08:44:04;98181.28;;;2.08;100.00
10014;BME280;45684;48.358;10.746;2023-02-13T08:46:32;98173.03;;;2.16;100.00
10014;BME280;45684;48.358;10.746;2023-02-13T08:49:00;98188.41;;;2.14;100.00
10014;BME280;45684;48.358;10.746;2023-02-13T08:51:28;98183.91;;;2.14;100.00
10014;BME280;45684;48.358;10.746;2023-02-13T08:53:56;98181.22;;;2.21;100.00
10014;BME280;45684;48.358;10.746;2023-02-13T08:56:24;98188.19;;;2.28;100.00
10014;BME280;45684;48.358;10.746;2023-02-13T08:58:53;98192.72;;;2.21;100.00
10014;BME280;45684;48.358;10.746;2023-02-13T09:01:21;98196.41;;;2.20;100.00
10014;BME280;45684;48.358;10.746;2023-02-13T09:03:49;98200.91;;;2.26;100.00
10014;BME280;45684;48.358;10.746;2023-02-13T09:06:17;98193.09;;;2.25;100.00
10014;BME280;45684;48.358;10.746;2023-02-13T09:08:45;98204.59;;;2.25;100.00
10014;BME280;45684;48.358;10.746;2023-02-13T09:11:13;98191.84;;;2.27;100.00
10014;BME280;45684;48.358;10.746;2023-02-13T09:13:41;98198.19;;;2.33;100.00
10014;BME280;45684;48.358;10.746;2023-02-13T09:16:11;98202.88;;;2.44;100.00
10014;BME280;45684;48.358;10.746;2023-02-13T09:18:38;98204.09;;;2.42;100.00
10014;BME280;45684;48.358;10.746;2023-02-13T09:21:10;98193.88;;;2.39;100.00
10014;BME280;45684;48.358;10.746;2023-02-13T09:23:39;98195.09;;;2.36;100.00
10014;BME280;45684;48.358;10.746;2023-02-13T09:26:09;98196.72;;;2.37;100.00
10014;BME280;45684;48.358;10.746;2023-02-13T09:28:38;98188.53;;;2.39;100.00
10014;BME280;45684;48.358;10.746;2023-02-13T09:31:07;98195.03;;;2.49;100.00
10014;BME280;45684;48.358;10.746;2023-02-13T09:33:37;98195.22;;;2.54;100.00
10014;BME280;45684;48.358;10.746;2023-02-13T09:36:06;98193.97;;;2.57;100.00
10014;BME280;45684;48.358;10.746;2023-02-13T09:38:34;98192.50;;;2.61;100.00
10014;BME280;45684;48.358;10.746;2023-02-13T09:41:04;98194.50;;;2.66;100.00
10014;BME280;45684;48.358;10.746;2023-02-13T09:43:36;98189.16;;;2.66;100.00
10014;BME280;45684;48.358;10.746;2023-02-13T09:46:12;98197.41;;;2.64;100.00
10014;BME280;45684;48.358;10.746;2023-02-13T09:48:44;98200.72;;;2.60;100.00
10014;BME280;45684;48.358;10.746;2023-02-13T09:51:15;98200.69;;;2.66;100.00
10014;BME280;45684;48.358;10.746;2023-02-13T09:53:49;98201.22;;;2.75;100.00
10014;BME280;45684;48.358;10.746;2023-02-13T09:56:21;98207.88;;;2.66;100.00
10014;BME280;45684;48.358;10.746;2023-02-13T09:58:53;98202.09;;;2.69;100.00
10014;BME280;45684;48.358;10.746;2023-02-13T10:01:28;98203.06;;;2.81;100.00
10014;BME280;45684;48.358;10.746;2023-02-13T10:04:18;98201.78;;;2.84;100.00
10014;BME280;45684;48.358;10.746;2023-02-13T10:06:53;98206.06;;;2.91;100.00
10014;BME280;45684;48.358;10.746;2023-02-13T10:09:29;98209.41;;;2.87;100.00
10014;BME280;45684;48.358;10.746;2023-02-13T10:14:57;98215.94;;;2.91;100.00
10014;BME280;45684;48.358;10.746;2023-02-13T10:17:33;98205.44;;;2.96;100.00
10014;BME280;45684;48.358;10.746;2023-02-13T10:20:06;98213.22;;;2.97;100.00
10014;BME280;45684;48.358;10.746;2023-02-13T10:22:37;98210.81;;;2.89;100.00
10014;BME280;45684;48.358;10.746;2023-02-13T10:25:13;98206.06;;;2.91;100.00
10014;BME280;45684;48.358;10.746;2023-02-13T10:27:46;98210.59;;;2.91;100.00
10014;BME280;45684;48.358;10.746;2023-02-13T10:30:20;98205.69;;;2.88;100.00
10014;BME280;45684;48.358;10.746;2023-02-13T10:32:55;98210.84;;;2.83;100.00
10014;BME280;45684;48.358;10.746;2023-02-13T10:35:38;98205.91;;;2.86;100.00
10014;BME280;45684;48.358;10.746;2023-02-13T10:38:14;98208.44;;;3.06;100.00
10014;BME280;45684;48.358;10.746;2023-02-13T10:40:50;98209.63;;;3.10;100.00
10014;BME280;45684;48.358;10.746;2023-02-13T10:43:26;98197.69;;;3.13;100.00
10014;BME280;45684;48.358;10.746;2023-02-13T10:46:07;98202.06;;;3.32;100.00
10014;BME280;45684;48.358;10.746;2023-02-13T10:48:54;98201.25;;;3.31;100.00
10014;BME280;45684;48.358;10.746;2023-02-13T10:51:27;98190.16;;;3.28;100.00
10014;BME280;45684;48.358;10.746;2023-02-13T10:54:13;98186.28;;;3.24;100.00
10014;BME280;45684;48.358;10.746;2023-02-13T10:56:48;98187.75;;;3.20;100.00
10014;BME280;45684;48.358;10.746;2023-02-13T10:59:32;98184.28;;;3.19;100.00
10014;BME280;45684;48.358;10.746;2023-02-13T11:02:19;98194.03;;;3.32;100.00
10014;BME280;45684;48.358;10.746;2023-02-13T11:04:49;98184.66;;;3.23;100.00
10014;BME280;45684;48.358;10.746;2023-02-13T11:07:23;98179.75;;;3.20;100.00
10014;BME280;45684;48.358;10.746;2023-02-13T11:09:54;98185.25;;;3.25;100.00
10014;BME280;45684;48.358;10.746;2023-02-13T11:12:28;98176.34;;;3.31;100.00
10014;BME280;45684;48.358;10.746;2023-02-13T11:14:57;98176.34;;;3.31;100.00
10014;BME280;45684;48.358;10.746;2023-02-13T11:17:28;98166.34;;;3.26;100.00
10014;BME280;45684;48.358;10.746;2023-02-13T11:19:59;98164.09;;;3.23;100.00
10014;BME280;45684;48.358;10.746;2023-02-13T11:22:31;98163.47;;;3.21;100.00
10014;BME280;45684;48.358;10.746;2023-02-13T11:25:02;98163.19;;;3.29;100.00
10014;BME280;45684;48.358;10.746;2023-02-13T11:27:32;98170.72;;;3.39;100.00
10014;BME280;45684;48.358;10.746;2023-02-13T11:30:03;98162.66;;;3.46;100.00
10014;BME280;45684;48.358;10.746;2023-02-13T11:32:34;98170.88;;;3.44;100.00
10014;BME280;45684;48.358;10.746;2023-02-13T11:35:25;98166.25;;;3.33;100.00
10014;BME280;45684;48.358;10.746;2023-02-13T11:38:15;98169.34;;;3.30;100.00
10014;BME280;45684;48.358;10.746;2023-02-13T11:40:49;98166.31;;;3.01;100.00
10014;BME280;45684;48.358;10.746;2023-02-13T11:43:20;98167.13;;;3.02;100.00
10014;BME280;45684;48.358;10.746;2023-02-13T11:46:00;98169.97;;;3.07;100.00
10014;BME280;45684;48.358;10.746;2023-02-13T11:48:29;98161.25;;;3.18;100.00
10014;BME280;45684;48.358;10.746;2023-02-13T11:50:57;98164.50;;;3.20;100.00
10014;BME280;45684;48.358;10.746;2023-02-13T11:53:29;98164.97;;;3.36;100.00
10014;BME280;45684;48.358;10.746;2023-02-13T11:56:08;98164.16;;;3.35;100.00
10014;BME280;45684;48.358;10.746;2023-02-13T11:58:36;98164.31;;;3.40;100.00
10014;BME280;45684;48.358;10.746;2023-02-13T12:01:10;98164.13;;;3.42;100.00
10014;BME280;45684;48.358;10.746;2023-02-13T12:03:40;98164.13;;;3.42;100.00
10014;BME280;45684;48.358;10.746;2023-02-13T12:06:12;98162.03;;;3.44;100.00
10014;BME280;45684;48.358;10.746;2023-02-13T12:08:44;98160.16;;;3.44;100.00
10014;BME280;45684;48.358;10.746;2023-02-13T12:11:20;98159.16;;;3.45;100.00
10014;BME280;45684;48.358;10.746;2023-02-13T12:13:49;98154.38;;;3.47;100.00
10014;BME280;45684;48.358;10.746;2023-02-13T12:16:25;98166.72;;;3.48;100.00
10014;BME280;45684;48.358;10.746;2023-02-13T12:18:59;98159.31;;;3.50;100.00
10014;BME280;45684;48.358;10.746;2023-02-13T12:21:39;98163.00;;;3.49;100.00
10014;BME280;45684;48.358;10.746;2023-02-13T12:24:22;98168.19;;;3.44;100.00
10014;BME280;45684;48.358;10.746;2023-02-13T12:26:59;98168.34;;;3.49;100.00
10014;BME280;45684;48.358;10.746;2023-02-13T12:29:55;98156.63;;;3.50;100.00
10014;BME280;45684;48.358;10.746;2023-02-13T12:32:37;98160.50;;;3.54;100.00
10014;BME280;45684;48.358;10.746;2023-02-13T12:35:27;98147.94;;;3.55;100.00
10014;BME280;45684;48.358;10.746;2023-02-13T12:38:02;98143.94;;;3.46;100.00
10014;BME280;45684;48.358;10.746;2023-02-13T12:40:57;98143.81;;;3.34;100.00
10014;BME280;45684;48.358;10.746;2023-02-13T12:46:38;98137.25;;;3.55;100.00
10014;BME280;45684;48.358;10.746;2023-02-13T12:49:33;98135.69;;;3.66;100.00
10014;BME280;45684;48.358;10.746;2023-02-13T12:52:14;98134.63;;;3.67;100.00
10014;BME280;45684;48.358;10.746;2023-02-13T12:54:57;98125.28;;;3.57;100.00
10014;BME280;45684;48.358;10.746;2023-02-13T12:57:42;98133.38;;;3.69;100.00
10014;BME280;45684;48.358;10.746;2023-02-13T13:00:25;98131.00;;;3.61;100.00
10014;BME280;45684;48.358;10.746;2023-02-13T13:03:28;98125.06;;;3.59;100.00
10014;BME280;45684;48.358;10.746;2023-02-13T13:06:06;98120.06;;;3.63;100.00
10014;BME280;45684;48.358;10.746;2023-02-13T13:09:00;98110.94;;;3.52;100.00
10014;BME280;45684;48.358;10.746;2023-02-13T13:11:44;98121.06;;;3.50;100.00
10014;BME280;45684;48.358;10.746;2023-02-13T13:14:22;98125.06;;;3.59;100.00
10014;BME280;45684;48.358;10.746;2023-02-13T13:17:03;98118.59;;;3.67;100.00
10014;BME280;45684;48.358;10.746;2023-02-13T13:19:43;98113.09;;;3.62;100.00
10014;BME280;45684;48.358;10.746;2023-02-13T13:22:18;98111.75;;;3.71;100.00
10014;BME280;45684;48.358;10.746;2023-02-13T13:24:57;98115.53;;;3.63;100.00
10014;BME280;45684;48.358;10.746;2023-02-13T13:27:32;98119.34;;;3.74;100.00